Time;durP1;ratioP1;P1;durP2;ratioP2;P2;SDS_P1;SDS_P2;PMS_P1;PMS_P2;Temp;Humidity;BMP_temperature;BMP_pressure;BME280_temperature;BME280_humidity;BME280_pressure;Samples;Min_cycle;Max_cycle;Signal;HPM_P1;HPM_P2
2022/12/23 00:02:21;;;;;;;2.17;0.90;;;18.80;68.00;;;;;;7404228;19;19931;-68
2022/12/23 00:04:50;;;;;;;1.90;1.00;;;18.80;68.10;;;;;;7406697;19;20252;-68
2022/12/23 00:07:19;;;;;;;2.00;0.52;;;18.70;68.00;;;;;;7404372;19;20499;-68
2022/12/23 00:09:48;;;;;;;1.80;0.40;;;18.70;68.10;;;;;;7403768;19;20323;-68
2022/12/23 00:15:09;;;;;;;1.60;0.50;;;18.70;68.10;;;;;;7397197;19;19919;-68
2022/12/23 00:17:44;;;;;;;1.98;0.75;;;18.70;68.20;;;;;;7388359;19;19925;-68
2022/12/23 00:20:16;;;;;;;2.78;1.30;;;18.60;68.10;;;;;;7406789;19;19971;-69
2022/12/23 00:28:15;;;;;;;1.40;0.30;;;18.60;68.20;;;;;;7404130;19;19925;-68
2022/12/23 00:30:52;;;;;;;1.77;0.40;;;18.60;68.20;;;;;;7394559;19;19922;-69
2022/12/23 00:33:23;;;;;;;1.88;0.75;;;18.70;68.20;;;;;;7399993;19;19925;-67
2022/12/23 00:35:54;;;;;;;1.75;0.82;;;18.60;68.20;;;;;;7411156;19;19919;-68
2022/12/23 00:42:52;;;;;;;3.92;1.30;;;18.60;68.10;;;;;;7414058;19;19993;-68
2022/12/23 00:43:56;;;;;;;2.10;0.55;;;18.70;68.20;;;;;;7410663;19;19933;-67
2022/12/23 00:46:29;;;;;;;3.08;0.45;;;18.80;68.10;;;;;;7409325;19;19995;-68
2022/12/23 00:51:39;;;;;;;1.85;0.47;;;18.80;68.10;;;;;;7413213;19;19930;-69
2022/12/23 00:54:09;;;;;;;1.95;0.50;;;18.90;68.10;;;;;;7406902;19;19922;-68
2022/12/23 00:56:38;;;;;;;2.47;0.80;;;18.90;68.00;;;;;;7411670;19;20348;-69
2022/12/23 00:59:07;;;;;;;1.50;0.40;;;18.90;68.00;;;;;;7413462;19;20005;-70
2022/12/23 01:07:03;;;;;;;1.75;0.80;;;19.10;67.90;;;;;;7412248;19;19926;-69
2022/12/23 01:09:33;;;;;;;1.23;0.32;;;19.20;68.00;;;;;;7409204;19;19921;-69
2022/12/23 01:12:02;;;;;;;1.70;0.40;;;19.20;67.90;;;;;;7407168;19;19918;-69
2022/12/23 01:14:31;;;;;;;1.98;0.60;;;19.30;67.90;;;;;;7405532;19;20020;-69
2022/12/23 01:17:03;;;;;;;1.50;0.45;;;19.30;67.70;;;;;;7409369;19;19982;-69
2022/12/23 01:19:33;;;;;;;1.40;0.57;;;19.40;67.70;;;;;;7413126;19;19921;-69
2022/12/23 01:22:02;;;;;;;1.48;0.40;;;19.40;67.60;;;;;;7410062;19;20331;-68
2022/12/23 01:24:34;;;;;;;2.03;1.05;;;19.50;67.60;;;;;;7413081;19;20273;-69
2022/12/23 01:27:03;;;;;;;2.55;1.67;;;19.50;67.50;;;;;;7412357;19;20263;-69
2022/12/23 01:29:33;;;;;;;1.40;0.40;;;19.50;67.40;;;;;;7409111;19;19922;-69
2022/12/23 01:32:04;;;;;;;1.95;0.73;;;19.50;67.40;;;;;;7400928;19;19930;-69
2022/12/23 01:34:34;;;;;;;1.42;0.40;;;19.60;67.40;;;;;;7409620;19;20336;-68
2022/12/23 01:37:09;;;;;;;1.52;1.13;;;19.50;67.30;;;;;;7407152;19;19932;-69
2022/12/23 01:39:39;;;;;;;1.33;0.55;;;19.50;67.30;;;;;;7410275;19;20258;-69
2022/12/23 01:45:06;;;;;;;1.58;0.80;;;19.50;67.20;;;;;;7403263;19;19922;-69
2022/12/23 01:47:43;;;;;;;1.33;0.40;;;19.50;67.20;;;;;;7412122;19;19937;-69
2022/12/23 01:50:21;;;;;;;1.67;1.17;;;19.50;67.20;;;;;;7410232;19;19939;-69
2022/12/23 01:53:01;;;;;;;1.35;0.40;;;19.50;67.20;;;;;;7411991;19;19915;-68
2022/12/23 01:55:32;;;;;;;1.70;0.95;;;19.40;67.20;;;;;;7410138;19;20066;-69
2022/12/23 01:58:07;;;;;;;1.58;1.02;;;19.40;67.20;;;;;;7408748;19;19945;-69
2022/12/23 02:09:15;;;;;;;1.52;0.38;;;19.40;67.20;;;;;;7409168;19;20344;-69
2022/12/23 02:11:47;;;;;;;1.42;0.50;;;19.30;67.20;;;;;;7404034;19;20332;-69
2022/12/23 02:17:23;;;;;;;1.92;0.40;;;19.30;67.30;;;;;;7409517;19;19982;-69
2022/12/23 02:20:27;;;;;;;1.48;0.52;;;19.20;67.30;;;;;;7407855;19;19911;-68
2022/12/23 02:23:25;;;;;;;2.40;0.90;;;19.20;67.40;;;;;;7407413;19;19917;-68
2022/12/23 02:26:09;;;;;;;1.80;0.55;;;19.10;67.40;;;;;;7407777;19;19918;-68
2022/12/23 02:29:14;;;;;;;1.58;0.30;;;19.10;67.40;;;;;;7400825;19;19918;-69
2022/12/23 02:31:55;;;;;;;1.40;0.40;;;19.10;67.50;;;;;;7409854;19;19930;-69
2022/12/23 02:34:31;;;;;;;1.48;0.98;;;19.10;67.60;;;;;;7406305;19;19974;-68
2022/12/23 02:37:09;;;;;;;2.08;1.20;;;19.00;67.50;;;;;;7407669;19;19925;-68
2022/12/23 02:39:46;;;;;;;1.65;0.38;;;19.00;67.60;;;;;;7407038;19;19929;-69
2022/12/23 02:42:18;;;;;;;1.67;0.50;;;19.00;67.60;;;;;;7407235;19;19922;-69
2022/12/23 02:44:54;;;;;;;1.73;0.93;;;19.00;67.60;;;;;;7404724;19;19934;-69
2022/12/23 02:47:30;;;;;;;1.67;0.98;;;19.00;67.70;;;;;;7405647;19;19941;-68
2022/12/23 02:50:05;;;;;;;1.67;0.55;;;18.90;67.60;;;;;;7409919;19;19937;-69
2022/12/23 02:52:37;;;;;;;1.20;0.40;;;18.90;67.70;;;;;;7406815;19;19922;-69
2022/12/23 02:55:11;;;;;;;1.25;0.43;;;18.90;67.70;;;;;;7402488;19;19918;-68
2022/12/23 02:57:44;;;;;;;1.70;0.50;;;18.90;67.70;;;;;;7408718;19;19925;-69
2022/12/23 03:00:15;;;;;;;1.80;0.38;;;18.80;67.70;;;;;;7407586;19;20359;-68
2022/12/23 03:02:49;;;;;;;1.75;0.40;;;18.80;67.70;;;;;;7399916;19;19918;-69
2022/12/23 03:05:30;;;;;;;1.77;0.52;;;18.80;67.70;;;;;;7406150;19;19935;-68
2022/12/23 03:08:02;;;;;;;2.17;0.28;;;18.70;67.80;;;;;;7408009;19;20358;-68
2022/12/23 03:10:41;;;;;;;1.42;0.50;;;18.80;67.80;;;;;;7405512;19;19915;-68
2022/12/23 03:13:18;;;;;;;2.55;1.08;;;18.80;67.80;;;;;;7406652;19;19929;-68
2022/12/23 03:15:53;;;;;;;1.48;0.50;;;18.70;67.70;;;;;;7406094;19;19985;-69
2022/12/23 03:18:35;;;;;;;1.10;0.40;;;18.70;67.70;;;;;;7407420;19;20023;-69
2022/12/23 03:21:11;;;;;;;1.20;0.40;;;18.70;67.70;;;;;;7406966;19;20011;-69
2022/12/23 03:23:45;;;;;;;1.95;1.20;;;18.60;67.80;;;;;;7408407;19;19926;-69
2022/12/23 03:26:23;;;;;;;2.10;1.48;;;18.60;67.80;;;;;;7405949;19;19949;-69
2022/12/23 03:28:58;;;;;;;1.23;0.30;;;18.60;67.80;;;;;;7405273;19;19926;-69
2022/12/23 03:31:30;;;;;;;1.48;0.85;;;18.70;67.80;;;;;;7406731;19;19922;-69
2022/12/23 03:34:09;;;;;;;1.50;0.50;;;18.70;67.80;;;;;;7404448;19;19926;-69
2022/12/23 03:36:41;;;;;;;1.50;0.93;;;18.70;67.70;;;;;;7405383;19;19977;-69
2022/12/23 03:39:15;;;;;;;2.58;0.95;;;18.70;67.70;;;;;;7408853;19;20379;-69
2022/12/23 03:41:47;;;;;;;1.90;1.15;;;18.70;67.70;;;;;;7405641;19;20339;-69
2022/12/23 03:44:20;;;;;;;1.42;0.50;;;18.80;67.80;;;;;;7404469;19;19918;-69
2022/12/23 03:46:56;;;;;;;1.73;1.00;;;18.80;67.70;;;;;;7407018;19;20276;-69
2022/12/23 03:49:33;;;;;;;1.15;0.32;;;18.80;67.70;;;;;;7404955;19;20029;-70
2022/12/23 03:52:07;;;;;;;1.60;0.40;;;18.90;67.60;;;;;;7406146;19;19927;-69
2022/12/23 03:54:43;;;;;;;1.40;0.50;;;18.90;67.60;;;;;;7405584;19;20426;-70
2022/12/23 03:57:16;;;;;;;1.65;1.00;;;19.00;67.60;;;;;;7403909;19;19918;-69
2022/12/23 03:59:49;;;;;;;1.60;0.82;;;19.00;67.50;;;;;;7407099;19;19918;-69
2022/12/23 04:02:25;;;;;;;1.25;0.70;;;19.10;67.50;;;;;;7404132;19;19923;-69
2022/12/23 04:05:12;;;;;;;1.50;0.43;;;19.10;67.40;;;;;;7406342;19;19933;-69
2022/12/23 04:07:45;;;;;;;1.98;1.05;;;19.20;67.30;;;;;;7405148;19;20253;-69
2022/12/23 04:10:16;;;;;;;1.92;0.52;;;19.30;67.30;;;;;;7404901;19;19974;-69
2022/12/23 04:12:45;;;;;;;;;;;19.30;67.20;;;;;;7398757;19;19922;-69
2022/12/23 04:15:14;;;;;;;1.33;1.00;;;19.40;67.20;;;;;;7404831;19;19943;-69
2022/12/23 04:17:43;;;;;;;1.52;0.63;;;19.40;67.10;;;;;;7408609;19;19922;-69
2022/12/23 04:20:15;;;;;;;1.38;0.40;;;19.50;67.00;;;;;;7407469;19;19919;-69
2022/12/23 04:22:45;;;;;;;1.70;0.50;;;19.50;67.00;;;;;;7404565;19;19919;-69
2022/12/23 04:25:16;;;;;;;1.48;0.60;;;19.50;66.90;;;;;;7406789;19;20351;-69
2022/12/23 04:27:45;;;;;;;1.60;0.40;;;19.50;66.80;;;;;;7398528;19;19911;-69
2022/12/23 04:30:15;;;;;;;1.20;0.38;;;19.60;66.80;;;;;;7406291;19;20368;-69
2022/12/23 04:32:44;;;;;;;2.05;1.52;;;19.60;66.80;;;;;;7403310;19;20249;-70
2022/12/23 04:35:16;;;;;;;1.35;0.40;;;19.60;66.80;;;;;;7405706;19;19927;-69
2022/12/23 04:37:45;;;;;;;2.60;1.20;;;19.50;66.70;;;;;;7403833;19;19922;-70
2022/12/23 04:40:15;;;;;;;1.80;0.70;;;19.60;66.80;;;;;;7406081;19;19926;-70
2022/12/23 04:42:44;;;;;;;1.55;0.95;;;19.50;66.70;;;;;;7403309;19;20310;-70
2022/12/23 04:45:13;;;;;;;1.92;0.95;;;19.50;66.70;;;;;;7402743;19;19941;-69
2022/12/23 04:47:43;;;;;;;3.40;1.20;;;19.50;66.70;;;;;;7403670;19;19927;-69
2022/12/23 04:50:18;;;;;;;1.83;1.30;;;19.50;66.70;;;;;;7406645;19;19923;-69
2022/12/23 04:52:47;;;;;;;1.88;1.05;;;19.40;66.60;;;;;;7405767;19;19918;-69
2022/12/23 04:55:16;;;;;;;1.02;0.38;;;19.40;66.70;;;;;;7403785;19;19932;-69
2022/12/23 04:57:46;;;;;;;1.90;1.50;;;19.40;66.60;;;;;;7405412;19;20244;-69
2022/12/23 05:00:17;;;;;;;1.38;0.52;;;19.40;66.70;;;;;;7407636;19;19919;-69
2022/12/23 05:02:46;;;;;;;1.55;0.22;;;19.40;66.70;;;;;;7394993;19;19930;-69
2022/12/23 05:05:17;;;;;;;1.75;0.60;;;19.40;66.70;;;;;;7404285;19;20348;-69
2022/12/23 05:07:49;;;;;;;2.15;0.55;;;19.30;66.70;;;;;;7402804;19;19982;-69
2022/12/23 05:10:18;;;;;;;1.25;0.30;;;19.30;67.30;;;;;;7402559;19;19934;-69
2022/12/23 05:12:47;;;;;;;1.40;0.40;;;19.30;66.70;;;;;;7404542;19;20336;-69
2022/12/23 05:15:16;;;;;;;1.63;1.13;;;19.20;66.80;;;;;;7402739;19;20320;-69
2022/12/23 05:17:45;;;;;;;1.58;0.50;;;19.20;66.80;;;;;;7403951;19;19927;-69
2022/12/23 05:20:17;;;;;;;1.50;0.80;;;19.20;66.90;;;;;;7403350;19;19941;-69
2022/12/23 05:22:47;;;;;;;1.63;0.38;;;19.10;66.80;;;;;;7413220;19;19933;-69
2022/12/23 05:25:16;;;;;;;1.40;0.43;;;19.10;66.90;;;;;;7411631;19;19945;-69
2022/12/23 05:27:45;;;;;;;1.58;0.45;;;19.10;66.90;;;;;;7410880;19;19926;-69
2022/12/23 05:30:14;;;;;;;2.05;1.38;;;19.10;66.90;;;;;;7408796;19;20248;-69
2022/12/23 05:32:43;;;;;;;1.60;1.00;;;19.00;67.00;;;;;;7411339;19;19925;-69
2022/12/23 05:35:13;;;;;;;1.48;0.40;;;19.00;67.00;;;;;;7407968;19;19919;-68
2022/12/23 05:37:45;;;;;;;1.30;0.40;;;19.00;67.10;;;;;;7404152;19;19926;-70
2022/12/23 05:40:14;;;;;;;1.65;0.57;;;19.00;67.10;;;;;;7407049;19;19938;-70
2022/12/23 05:42:43;;;;;;;1.73;0.45;;;18.90;67.10;;;;;;7409293;19;19919;-70
2022/12/23 05:45:13;;;;;;;1.52;0.50;;;18.90;67.10;;;;;;7408120;19;20352;-70
2022/12/23 05:47:42;;;;;;;1.65;1.02;;;18.90;67.10;;;;;;7410133;19;19918;-70
2022/12/23 05:50:12;;;;;;;1.80;1.08;;;18.90;67.10;;;;;;7407959;19;20344;-70
2022/12/23 05:52:43;;;;;;;1.20;0.40;;;18.80;67.10;;;;;;7409436;19;19922;-70
2022/12/23 05:55:12;;;;;;;1.60;0.60;;;18.80;67.10;;;;;;7409553;19;19926;-69
2022/12/23 05:57:41;;;;;;;1.33;0.55;;;18.90;67.20;;;;;;7407744;19;19922;-69
2022/12/23 06:00:12;;;;;;;1.75;1.35;;;18.80;67.10;;;;;;7407264;19;19978;-70
2022/12/23 06:02:41;;;;;;;1.38;0.40;;;18.80;67.20;;;;;;7407709;19;19922;-70
2022/12/23 06:05:12;;;;;;;1.42;0.43;;;18.80;67.20;;;;;;7409632;19;19937;-70
2022/12/23 06:07:44;;;;;;;1.77;1.17;;;18.70;67.20;;;;;;7407298;19;20016;-69
2022/12/23 06:10:13;;;;;;;1.48;0.45;;;18.70;67.30;;;;;;7407864;19;19914;-69
2022/12/23 06:12:42;;;;;;;;;;;18.70;67.30;;;;;;7409128;19;19922;-69
2022/12/23 06:15:12;;;;;;;2.03;0.63;;;18.70;67.30;;;;;;7408773;19;19982;-70
2022/12/23 06:17:41;;;;;;;1.90;1.15;;;18.60;67.30;;;;;;7405011;19;20349;-71
2022/12/23 06:20:13;;;;;;;0.85;0.20;;;18.60;67.30;;;;;;7408114;19;19926;-69
2022/12/23 06:22:45;;;;;;;1.17;0.65;;;18.60;67.30;;;;;;7410219;19;19919;-69
2022/12/23 06:25:14;;;;;;;1.50;0.63;;;18.60;67.30;;;;;;7408875;19;19922;-69
2022/12/23 06:27:43;;;;;;;1.58;0.40;;;18.70;67.30;;;;;;7410720;19;19928;-69
2022/12/23 06:30:13;;;;;;;1.20;0.43;;;18.70;67.30;;;;;;7410893;19;19925;-68
2022/12/23 06:32:43;;;;;;;1.13;0.30;;;18.70;67.30;;;;;;7409181;19;19922;-69
2022/12/23 06:35:12;;;;;;;1.30;0.40;;;18.80;67.30;;;;;;7399992;19;19923;-70
2022/12/23 06:37:44;;;;;;;1.38;0.52;;;18.80;67.30;;;;;;7409914;19;19918;-69
2022/12/23 06:40:14;;;;;;;1.45;0.50;;;18.80;67.20;;;;;;7407533;19;20318;-69
2022/12/23 06:42:43;;;;;;;1.88;0.98;;;18.80;67.10;;;;;;7411400;19;19978;-69
2022/12/23 06:45:14;;;;;;;1.25;0.40;;;18.90;67.10;;;;;;7407570;19;19978;-69
2022/12/23 06:47:44;;;;;;;1.23;0.38;;;18.90;67.10;;;;;;7408359;19;19919;-69
2022/12/23 06:50:13;;;;;;;1.42;0.32;;;19.00;67.10;;;;;;7410919;19;19922;-69
2022/12/23 06:52:44;;;;;;;1.45;0.47;;;19.00;67.10;;;;;;7402706;19;19922;-69
2022/12/23 06:55:14;;;;;;;1.40;0.43;;;19.10;67.00;;;;;;7395495;19;19951;-69
2022/12/23 06:57:43;;;;;;;1.45;0.47;;;19.10;66.90;;;;;;7411093;19;19922;-69
2022/12/23 07:00:13;;;;;;;1.60;0.40;;;19.20;67.00;;;;;;7406871;19;19907;-69
2022/12/23 07:02:42;;;;;;;1.67;0.40;;;19.20;66.80;;;;;;7407787;19;19946;-69
2022/12/23 07:05:12;;;;;;;1.25;0.50;;;19.30;66.80;;;;;;7404048;19;19974;-69
2022/12/23 07:07:41;;;;;;;1.58;1.08;;;19.30;66.70;;;;;;7409930;19;19932;-69
2022/12/23 07:10:13;;;;;;;1.77;0.30;;;19.40;66.60;;;;;;7407332;19;19941;-69
2022/12/23 07:12:42;;;;;;;1.67;1.17;;;19.40;66.50;;;;;;7403898;19;19918;-70
2022/12/23 07:15:12;;;;;;;1.38;0.43;;;19.50;66.50;;;;;;7406098;19;19978;-69
2022/12/23 07:17:41;;;;;;;1.33;0.98;;;19.50;66.50;;;;;;7406554;19;19918;-69
2022/12/23 07:20:12;;;;;;;1.13;0.30;;;19.50;66.40;;;;;;7407704;19;19915;-69
2022/12/23 07:22:41;;;;;;;1.13;0.40;;;19.60;66.40;;;;;;7398138;19;19918;-69
2022/12/23 07:25:13;;;;;;;1.13;0.68;;;19.60;66.40;;;;;;7304988;19;19953;-69
2022/12/23 07:27:43;;;;;;;1.45;0.30;;;19.60;66.30;;;;;;7408339;19;19921;-69
2022/12/23 07:30:13;;;;;;;1.00;0.20;;;19.50;66.20;;;;;;7405521;19;20336;-69
2022/12/23 07:32:42;;;;;;;0.95;0.25;;;19.50;66.20;;;;;;7410407;19;19928;-69
2022/12/23 07:35:13;;;;;;;1.95;0.95;;;19.50;66.20;;;;;;7405244;19;19932;-68
2022/12/23 07:37:42;;;;;;;2.00;1.77;;;19.50;66.20;;;;;;7407871;19;19921;-69
2022/12/23 07:40:15;;;;;;;1.42;0.93;;;19.50;66.20;;;;;;7405779;19;19915;-69
2022/12/23 07:42:44;;;;;;;1.30;0.35;;;19.50;66.20;;;;;;7397964;19;19947;-69
2022/12/23 07:45:13;;;;;;;0.93;0.30;;;19.50;66.20;;;;;;7407701;19;19915;-68
2022/12/23 07:47:43;;;;;;;1.48;0.52;;;19.40;66.20;;;;;;7405846;19;19914;-69
2022/12/23 07:50:12;;;;;;;;;;;19.40;66.80;;;;;;7412107;19;19919;-69
2022/12/23 07:52:41;;;;;;;1.70;1.00;;;19.40;66.20;;;;;;7404759;19;20255;-69
2022/12/23 07:55:11;;;;;;;1.13;0.40;;;19.30;66.20;;;;;;7406909;19;19914;-69
2022/12/23 07:57:42;;;;;;;1.10;0.40;;;19.30;66.30;;;;;;7404789;19;19914;-69
2022/12/23 08:00:14;;;;;;;1.40;0.30;;;19.30;66.20;;;;;;6896851;19;3009219;-69
2022/12/23 08:02:43;;;;;;;1.73;1.58;;;19.30;66.30;;;;;;7245026;19;3008764;-70
2022/12/23 08:05:13;;;;;;;1.45;0.50;;;19.20;66.30;;;;;;7405139;19;19922;-70
2022/12/23 08:07:43;;;;;;;1.33;0.82;;;19.20;66.30;;;;;;7407542;19;19933;-70
2022/12/23 08:10:14;;;;;;;1.30;0.50;;;19.20;66.30;;;;;;7403792;19;19918;-70
2022/12/23 08:12:45;;;;;;;0.95;0.30;;;19.20;66.40;;;;;;7407133;19;20340;-69
2022/12/23 08:15:22;;;;;;;1.67;0.88;;;19.10;66.40;;;;;;7404442;19;20324;-69
2022/12/23 08:17:51;;;;;;;1.25;0.70;;;19.10;66.50;;;;;;7405744;19;20351;-70
2022/12/23 08:20:27;;;;;;;1.70;0.88;;;19.10;66.50;;;;;;7404946;19;19918;-70
2022/12/23 08:22:57;;;;;;;1.73;0.77;;;19.10;66.50;;;;;;7403855;19;19950;-70
2022/12/23 08:25:26;;;;;;;1.35;0.40;;;19.00;66.60;;;;;;7408009;19;19938;-70
2022/12/23 08:27:58;;;;;;;1.17;0.50;;;19.00;66.60;;;;;;7404628;19;19914;-69
2022/12/23 08:30:27;;;;;;;1.20;0.40;;;19.00;66.60;;;;;;7404187;19;19975;-70
2022/12/23 08:32:56;;;;;;;1.95;0.45;;;19.00;66.60;;;;;;7405497;19;19926;-69
2022/12/23 08:35:25;;;;;;;1.40;1.02;;;18.90;66.60;;;;;;7402764;19;19939;-69
2022/12/23 08:37:54;;;;;;;1.63;1.02;;;18.90;66.60;;;;;;7406813;19;20006;-69
2022/12/23 08:40:23;;;;;;;1.33;0.80;;;18.90;66.60;;;;;;7403683;19;19921;-69
2022/12/23 08:42:52;;;;;;;1.50;0.80;;;18.90;66.70;;;;;;7405116;19;19914;-69
2022/12/23 08:45:24;;;;;;;1.73;0.90;;;18.90;66.80;;;;;;7407129;19;20302;-69
2022/12/23 08:47:54;;;;;;;1.52;0.68;;;18.80;66.70;;;;;;7407088;19;19931;-69
2022/12/23 08:50:23;;;;;;;1.73;1.20;;;18.80;66.70;;;;;;7401113;19;20301;-69
2022/12/23 08:52:52;;;;;;;1.38;0.82;;;18.70;66.70;;;;;;7397404;19;19926;-69
2022/12/23 08:55:21;;;;;;;1.40;1.13;;;18.80;66.80;;;;;;7412697;19;19978;-69
2022/12/23 08:57:50;;;;;;;2.13;1.35;;;18.80;66.80;;;;;;7406914;19;19919;-69
2022/12/23 09:00:19;;;;;;;1.40;1.08;;;18.70;66.80;;;;;;7412421;19;19919;-69
2022/12/23 09:02:51;;;;;;;1.17;0.88;;;18.70;66.80;;;;;;7410085;19;20339;-68
2022/12/23 09:05:22;;;;;;;2.78;0.73;;;18.70;66.80;;;;;;7408683;19;20332;-69
2022/12/23 09:07:51;;;;;;;1.48;0.93;;;18.70;66.80;;;;;;7403628;19;19977;-70
2022/12/23 09:10:22;;;;;;;1.52;0.68;;;18.70;66.90;;;;;;7410591;19;19928;-68
2022/12/23 09:12:51;;;;;;;1.20;0.50;;;18.60;66.90;;;;;;7405571;19;20339;-69
2022/12/23 09:15:20;;;;;;;1.42;0.82;;;18.60;66.80;;;;;;7411812;19;19919;-69
2022/12/23 09:17:52;;;;;;;;;;;18.60;66.80;;;;;;7408611;19;19917;-69
2022/12/23 09:20:21;;;;;;;1.17;0.30;;;18.70;66.90;;;;;;7410884;19;19918;-69
2022/12/23 09:22:50;;;;;;;0.98;0.20;;;18.70;67.00;;;;;;7407566;19;19922;-69
2022/12/23 09:25:24;;;;;;;1.33;0.40;;;18.70;66.80;;;;;;7408353;19;19921;-70
2022/12/23 09:27:53;;;;;;;1.60;0.47;;;18.80;66.80;;;;;;7292969;19;19919;-69
2022/12/23 09:30:23;;;;;;;0.90;0.30;;;18.80;66.90;;;;;;7332298;19;19922;-69
2022/12/23 09:32:54;;;;;;;1.27;0.35;;;18.80;66.80;;;;;;7410819;19;19919;-69
2022/12/23 09:35:25;;;;;;;1.33;0.63;;;18.80;66.80;;;;;;7383469;19;19932;-69
2022/12/23 09:37:54;;;;;;;2.05;0.68;;;18.90;66.80;;;;;;7398995;19;20252;-70
2022/12/23 09:40:23;;;;;;;1.67;1.15;;;18.90;66.70;;;;;;7399299;19;20364;-69
2022/12/23 09:43:05;;;;;;;2.15;1.00;;;19.00;66.60;;;;;;7404862;19;20364;-68
2022/12/23 09:45:55;;;;;;;1.08;0.38;;;19.10;66.70;;;;;;7400608;19;19928;-68
2022/12/23 09:48:33;;;;;;;2.30;0.40;;;19.20;66.60;;;;;;7411860;19;19918;-69
2022/12/23 09:51:04;;;;;;;1.30;0.20;;;19.20;66.60;;;;;;7411679;19;19987;-68
2022/12/23 09:53:49;;;;;;;2.85;1.23;;;19.30;66.50;;;;;;7409901;19;19981;-68
2022/12/23 09:56:21;;;;;;;1.38;0.30;;;19.30;66.50;;;;;;7316996;19;19908;-68
2022/12/23 09:58:55;;;;;;;1.33;0.63;;;19.40;66.50;;;;;;7406698;19;19918;-68
2022/12/23 10:01:33;;;;;;;2.58;1.05;;;19.40;66.50;;;;;;7403300;19;19914;-67
2022/12/23 10:04:30;;;;;;;1.00;0.40;;;19.50;66.70;;;;;;7404305;19;19941;-68
2022/12/23 10:07:15;;;;;;;5.57;1.80;;;19.60;66.70;;;;;;7397614;19;19930;-68
2022/12/23 10:09:45;;;;;;;1.13;0.20;;;19.70;66.60;;;;;;7395489;19;19922;-68
2022/12/23 10:12:21;;;;;;;1.02;0.20;;;19.70;66.50;;;;;;7406668;19;19935;-69
2022/12/23 10:14:54;;;;;;;2.17;1.67;;;19.70;66.50;;;;;;7406981;19;19999;-76
2022/12/23 10:17:29;;;;;;;3.55;0.75;;;19.70;66.50;;;;;;7316996;19;19918;-76
2022/12/23 10:20:04;;;;;;;1.30;0.88;;;19.80;66.50;;;;;;7409819;19;20286;-77
2022/12/23 10:22:40;;;;;;;2.75;0.70;;;19.80;66.40;;;;;;7408981;19;19922;-77
2022/12/23 10:25:16;;;;;;;1.65;0.40;;;19.80;66.40;;;;;;7401062;19;19915;-76
2022/12/23 10:27:52;;;;;;;1.77;0.98;;;19.80;66.40;;;;;;7410236;19;20407;-77
2022/12/23 10:30:26;;;;;;;1.10;0.22;;;19.80;66.50;;;;;;7402100;19;20360;-76
2022/12/23 10:33:03;;;;;;;1.73;0.30;;;19.80;66.50;;;;;;7382111;19;19948;-76
2022/12/23 10:35:57;;;;;;;1.00;0.30;;;19.80;66.60;;;;;;7411182;19;19921;-76
2022/12/23 10:38:43;;;;;;;1.30;0.88;;;19.70;66.60;;;;;;7409254;19;19914;-75
2022/12/23 10:41:22;;;;;;;1.23;0.35;;;19.70;66.60;;;;;;7407805;19;19914;-76
2022/12/23 10:44:15;;;;;;;1.45;0.50;;;19.70;66.60;;;;;;7410899;19;19919;-76
2022/12/23 10:46:53;;;;;;;1.02;0.25;;;19.60;66.70;;;;;;7413770;19;19946;-76
2022/12/23 10:49:35;;;;;;;1.02;0.40;;;19.60;66.80;;;;;;7407545;19;19978;-76
2022/12/23 10:52:14;;;;;;;1.65;0.30;;;19.60;67.00;;;;;;7410923;19;19943;-76
2022/12/23 10:54:45;;;;;;;2.72;0.60;;;19.50;67.00;;;;;;7407826;19;19925;-77
2022/12/23 10:57:17;;;;;;;1.45;0.40;;;19.50;67.20;;;;;;7402514;19;19941;-76
2022/12/23 10:59:46;;;;;;;1.20;0.30;;;19.40;67.30;;;;;;7408099;19;19922;-76
2022/12/23 11:02:33;;;;;;;1.10;0.20;;;19.40;67.40;;;;;;7399507;19;19923;-76
2022/12/23 11:05:02;;;;;;;1.50;0.73;;;19.40;67.50;;;;;;7410557;19;19923;-77
2022/12/23 11:07:36;;;;;;;1.08;0.68;;;19.30;67.50;;;;;;7406304;19;19918;-77
2022/12/23 11:10:09;;;;;;;2.50;1.10;;;19.40;67.50;;;;;;7406069;19;19942;-76
2022/12/23 11:12:43;;;;;;;1.60;0.40;;;19.30;67.40;;;;;;7405582;19;20357;-76
2022/12/23 11:15:28;;;;;;;1.17;0.30;;;19.40;67.40;;;;;;7408684;19;19974;-76
2022/12/23 11:18:07;;;;;;;2.00;0.43;;;19.30;67.50;;;;;;7397540;19;19914;-77
2022/12/23 11:20:37;;;;;;;2.35;0.98;;;19.30;67.60;;;;;;7410192;19;20244;-77
2022/12/23 11:23:26;;;;;;;1.20;0.22;;;19.30;67.60;;;;;;7406521;19;19941;-76
2022/12/23 11:26:03;;;;;;;2.15;0.40;;;19.20;67.70;;;;;;7406476;19;19927;-73
2022/12/23 11:28:39;;;;;;;2.88;1.00;;;19.20;67.80;;;;;;7406377;19;19922;-61
2022/12/23 11:31:10;;;;;;;2.58;1.02;;;19.20;68.00;;;;;;7408266;19;20234;-61
2022/12/23 11:33:47;;;;;;;1.70;0.90;;;19.20;68.00;;;;;;7403658;19;19922;-67
2022/12/23 11:36:22;;;;;;;2.17;0.88;;;19.10;68.00;;;;;;7396997;19;19922;-68
2022/12/23 11:39:08;;;;;;;1.58;1.23;;;19.10;68.00;;;;;;7409182;19;19951;-68
2022/12/23 11:41:39;;;;;;;1.45;0.73;;;19.10;68.10;;;;;;7406869;19;19925;-68
2022/12/23 11:44:13;;;;;;;2.63;0.40;;;19.00;68.00;;;;;;7405519;19;19925;-68
2022/12/23 11:46:42;;;;;;;1.40;0.40;;;19.00;68.10;;;;;;7404597;19;19923;-68
2022/12/23 11:49:19;;;;;;;2.65;0.20;;;19.00;68.20;;;;;;7406490;19;20005;-70
2022/12/23 11:52:00;;;;;;;2.08;0.32;;;19.00;68.20;;;;;;7396601;19;20026;-69
2022/12/23 11:54:32;;;;;;;0.90;0.30;;;18.90;68.20;;;;;;7400856;19;19929;-68
2022/12/23 11:57:04;;;;;;;2.95;0.90;;;18.90;68.30;;;;;;7406359;19;20251;-68
2022/12/23 11:59:40;;;;;;;1.40;0.45;;;18.90;68.30;;;;;;7407249;19;19926;-68
2022/12/23 12:02:16;;;;;;;2.50;0.50;;;18.90;68.30;;;;;;7403353;19;20386;-67
2022/12/23 12:04:56;;;;;;;1.40;0.50;;;18.80;68.30;;;;;;7406202;19;19922;-63
2022/12/23 12:07:26;;;;;;;0.90;0.20;;;18.80;68.30;;;;;;7407771;19;20348;-62
2022/12/23 12:09:59;;;;;;;1.27;0.30;;;18.90;68.40;;;;;;7400891;19;19943;-63
2022/12/23 12:12:30;;;;;;;2.28;0.40;;;18.80;68.30;;;;;;7405949;19;19942;-62
2022/12/23 12:15:01;;;;;;;1.40;1.00;;;18.80;68.30;;;;;;7404874;19;20288;-63
2022/12/23 12:17:37;;;;;;;1.13;0.38;;;18.80;68.40;;;;;;7402051;19;20598;-62
2022/12/23 12:20:13;;;;;;;2.17;0.47;;;18.80;68.40;;;;;;7406951;19;19978;-63
2022/12/23 12:22:46;;;;;;;1.52;0.30;;;18.70;68.40;;;;;;7404647;19;19926;-62
2022/12/23 12:25:23;;;;;;;2.38;0.32;;;18.70;68.50;;;;;;7404734;19;19926;-62
2022/12/23 12:27:57;;;;;;;1.30;0.50;;;18.70;68.50;;;;;;7403392;19;19919;-62
2022/12/23 12:30:33;;;;;;;1.85;0.43;;;18.70;68.50;;;;;;7411481;19;20350;-62
2022/12/23 12:33:07;;;;;;;2.65;0.93;;;18.70;68.50;;;;;;7409592;19;19922;-62
2022/12/23 12:35:45;;;;;;;1.90;0.38;;;18.70;68.50;;;;;;7413738;19;19940;-63
2022/12/23 12:38:24;;;;;;;3.60;0.32;;;18.70;68.50;;;;;;7408038;19;19986;-62
2022/12/23 12:41:00;;;;;;;3.63;0.50;;;18.70;68.60;;;;;;7406004;19;19921;-62
2022/12/23 12:43:31;;;;;;;3.25;0.70;;;18.70;68.60;;;;;;7412528;19;19978;-62
2022/12/23 12:46:13;;;;;;;2.58;1.38;;;18.70;68.60;;;;;;7411749;19;19922;-62
2022/12/23 12:48:50;;;;;;;4.40;0.50;;;18.70;68.60;;;;;;7411072;19;19956;-63
2022/12/23 12:51:27;;;;;;;3.88;0.65;;;18.70;68.70;;;;;;7407522;19;20255;-62
2022/12/23 12:54:06;;;;;;;4.28;0.98;;;18.70;68.80;;;;;;7407065;19;19927;-62
2022/12/23 12:56:46;;;;;;;5.43;0.80;;;18.60;68.70;;;;;;7406604;19;19918;-62
2022/12/23 12:59:19;;;;;;;1.70;0.38;;;18.70;68.80;;;;;;7406176;19;19918;-62
2022/12/23 13:01:59;;;;;;;3.47;0.80;;;18.70;68.90;;;;;;7410992;19;20280;-62
2022/12/23 13:04:52;;;;;;;1.67;0.50;;;18.60;68.80;;;;;;7056912;19;5011022;-62
2022/12/23 13:07:29;;;;;;;3.08;0.82;;;18.60;68.90;;;;;;7409048;19;20363;-62
2022/12/23 13:10:05;;;;;;;2.47;0.57;;;18.60;68.90;;;;;;7410328;19;19922;-62
2022/12/23 13:12:47;;;;;;;4.80;0.52;;;18.60;68.90;;;;;;7407585;19;19922;-62
2022/12/23 13:15:23;;;;;;;2.60;0.90;;;18.70;68.90;;;;;;7400675;19;19926;-63
2022/12/23 13:18:10;;;;;;;2.08;0.50;;;18.60;68.80;;;;;;7410513;19;19961;-62
2022/12/23 13:20:46;;;;;;;2.40;0.85;;;18.60;68.80;;;;;;7407941;19;19923;-63
2022/12/23 13:23:20;;;;;;;4.63;1.60;;;18.60;68.80;;;;;;7412358;19;20304;-61
2022/12/23 13:25:55;;;;;;;6.70;0.63;;;18.60;68.80;;;;;;7412236;19;19922;-61
2022/12/23 13:28:37;;;;;;;3.67;0.70;;;18.60;68.80;;;;;;7409923;19;19925;-61
2022/12/23 13:31:15;;;;;;;3.08;0.40;;;18.60;68.80;;;;;;7408100;19;19978;-61
2022/12/23 13:33:56;;;;;;;1.90;0.52;;;18.60;68.80;;;;;;7393752;19;19929;-61
2022/12/23 13:36:41;;;;;;;2.60;0.57;;;18.60;68.80;;;;;;7401116;19;19921;-62
2022/12/23 13:39:24;;;;;;;2.55;1.15;;;18.60;68.80;;;;;;7406964;19;20267;-60
2022/12/23 13:41:56;;;;;;;2.45;0.57;;;18.60;68.90;;;;;;7408471;19;19914;-60
2022/12/23 13:44:28;;;;;;;3.53;0.95;;;18.60;68.90;;;;;;7409129;19;19969;-59
2022/12/23 13:47:09;;;;;;;1.90;0.65;;;18.50;69.00;;;;;;7412016;19;19926;-60
2022/12/23 13:49:52;;;;;;;1.85;0.75;;;18.50;69.10;;;;;;7408339;19;19980;-59
2022/12/23 13:52:31;;;;;;;2.17;0.52;;;18.50;69.30;;;;;;7409622;19;19915;-59
2022/12/23 13:55:29;;;;;;;2.50;0.47;;;18.40;69.30;;;;;;7410366;19;19978;-59